Time;durP1;ratioP1;P1;durP2;ratioP2;P2;SDS_P1;SDS_P2;PMS_P1;PMS_P2;Temp;Humidity;BMP_temperature;BMP_pressure;BME280_temperature;BME280_humidity;BME280_pressure;Samples;Min_cycle;Max_cycle;Signal;HPM_P1;HPM_P2
2022/05/02 00:00:07;;;;;;;9.07;5.35;;;;;;;10.73;37.24;100036.09;5049949;28;20033;-54
2022/05/02 00:02:33;;;;;;;9.82;5.60;;;;;;;10.59;37.54;100013.09;5050047;28;20029;-56
2022/05/02 00:04:59;;;;;;;12.15;5.72;;;;;;;10.71;37.36;100031.81;5049968;28;20388;-55
2022/05/02 00:07:24;;;;;;;10.05;5.22;;;;;;;10.70;37.44;100025.63;5050103;28;20021;-55
2022/05/02 00:09:50;;;;;;;13.52;5.50;;;;;;;10.57;38.00;100017.72;5049951;28;20025;-52
2022/05/02 00:12:15;;;;;;;10.10;5.53;;;;;;;10.68;38.14;100029.41;5049895;28;20037;-53
2022/05/02 00:14:41;;;;;;;10.98;6.30;;;;;;;10.62;38.48;100028.91;5049710;28;20114;-53
2022/05/02 00:17:06;;;;;;;14.93;6.40;;;;;;;10.56;38.54;100026.72;5049682;28;20029;-56
2022/05/02 00:19:32;;;;;;;10.75;6.65;;;;;;;10.47;38.64;100011.34;5049894;28;20036;-54
2022/05/02 00:21:57;;;;;;;11.13;5.95;;;;;;;10.44;38.27;100020.47;5049724;28;20041;-55
2022/05/02 00:24:23;;;;;;;9.70;6.00;;;;;;;10.44;38.40;100020.47;5049995;28;20079;-54
2022/05/02 00:26:48;;;;;;;8.20;5.20;;;;;;;10.46;38.72;100015.00;5049837;28;20071;-55
2022/05/02 00:29:14;;;;;;;8.23;5.32;;;;;;;10.46;38.60;100013.19;5049525;28;20139;-55
2022/05/02 00:31:40;;;;;;;13.10;5.70;;;;;;;10.47;38.53;100004.19;5049710;28;20040;-54
2022/05/02 00:34:05;;;;;;;11.50;5.65;;;;;;;10.46;38.37;100010.50;5049859;28;20029;-56
2022/05/02 00:36:31;;;;;;;8.93;5.30;;;;;;;10.52;38.08;100019.03;5049673;28;20048;-53
2022/05/02 00:38:56;;;;;;;13.50;5.57;;;;;;;10.50;38.50;100019.16;5031884;28;20033;-50
2022/05/02 00:41:23;;;;;;;11.52;5.68;;;;;;;10.49;38.71;100028.16;5049879;28;20528;-54
2022/05/02 00:43:48;;;;;;;9.38;5.75;;;;;;;10.49;38.33;100022.81;5049735;28;20032;-52
2022/05/02 00:46:18;;;;;;;13.52;5.43;;;;;;;10.52;38.31;100021.72;5049416;28;20362;-57
2022/05/02 00:48:45;;;;;;;10.85;5.85;;;;;;;10.43;38.48;100017.91;5031917;28;20064;-54
2022/05/02 00:51:10;;;;;;;10.77;5.63;;;;;;;10.34;38.58;100014.94;5049768;28;20098;-49
2022/05/02 00:53:36;;;;;;;9.35;5.57;;;;;;;10.31;38.89;100022.34;5049332;28;20391;-54
2022/05/02 00:56:03;;;;;;;11.32;5.90;;;;;;;10.26;38.70;100027.19;5049506;28;20460;-53
2022/05/02 00:58:29;;;;;;;12.32;6.78;;;;;;;10.25;39.37;100020.16;5049886;28;20117;-56
2022/05/02 01:00:55;;;;;;;11.40;5.75;;;;;;;10.18;38.77;100011.72;5049797;28;20030;-52
2022/05/02 01:03:20;;;;;;;11.68;5.88;;;;;;;10.14;39.13;100021.84;5049314;28;20052;-52
2022/05/02 01:08:33;;;;;;;12.43;5.60;;;;;;;10.11;39.54;100015.84;5053424;28;20039;-56
2022/05/02 01:11:00;;;;;;;10.32;5.72;;;;;;;10.06;39.51;100021.53;5053665;28;20070;-57
2022/05/02 01:13:39;;;;;;;9.48;6.28;;;;;;;10.11;39.05;100029.22;5053217;28;20044;-50
2022/05/02 01:16:20;;;;;;;12.52;5.57;;;;;;;10.01;39.51;100021.91;5053208;28;20040;-55
2022/05/02 01:18:48;;;;;;;10.05;5.15;;;;;;;9.85;39.77;100019.50;5052108;28;20055;-51
2022/05/02 01:21:22;;;;;;;12.80;5.97;;;;;;;9.81;39.97;100015.34;5053361;28;20033;-51
2022/05/02 01:23:50;;;;;;;11.43;5.85;;;;;;;9.65;40.45;100020.16;5052760;28;20057;-52
2022/05/02 01:26:16;;;;;;;11.07;6.18;;;;;;;9.54;40.63;100016.44;5053284;28;20120;-51
2022/05/02 01:28:45;;;;;;;10.80;5.40;;;;;;;9.48;40.68;100019.56;5052999;28;20029;-56
2022/05/02 01:31:11;;;;;;;11.27;5.50;;;;;;;9.43;41.05;100011.88;5052906;28;20485;-51
2022/05/02 01:33:37;;;;;;;11.02;5.82;;;;;;;9.44;40.66;100015.41;5052810;28;20044;-52
2022/05/02 01:36:03;;;;;;;8.70;5.55;;;;;;;9.45;41.01;100017.13;5052472;28;20025;-52
2022/05/02 01:38:29;;;;;;;13.02;5.78;;;;;;;9.27;40.73;99988.09;5053053;28;20033;-55
2022/05/02 01:40:55;;;;;;;11.88;5.80;;;;;;;9.50;40.53;100011.41;5052968;28;20107;-52
2022/05/02 01:43:20;;;;;;;8.50;5.40;;;;;;;9.51;40.70;100018.47;5052550;28;20118;-59
2022/05/02 01:45:46;;;;;;;10.85;5.60;;;;;;;9.49;40.52;100013.25;5052376;28;20468;-54
2022/05/02 01:48:12;;;;;;;11.13;5.60;;;;;;;9.48;40.40;100012.38;5052954;28;20525;-54
2022/05/02 01:50:37;;;;;;;13.30;5.93;;;;;;;9.47;40.45;100009.84;5052603;28;20033;-55
2022/05/02 01:53:03;;;;;;;11.70;5.90;;;;;;;9.56;40.51;100025.19;5034566;28;20107;-55
2022/05/02 01:55:29;;;;;;;11.35;5.10;;;;;;;9.56;40.56;100022.50;5052918;28;20025;-56
2022/05/02 01:57:54;;;;;;;14.77;5.90;;;;;;;9.43;40.66;99998.50;5052371;28;20132;-53
2022/05/02 02:00:20;;;;;;;10.40;5.28;;;;;;;9.60;40.51;100029.34;5052335;28;20040;-55
2022/05/02 02:02:45;;;;;;;9.50;5.75;;;;;;;9.59;40.27;100014.25;5052349;28;20029;-52
2022/05/02 02:07:55;;;;;;;11.05;5.75;;;;;;;9.68;40.40;100025.28;5052390;28;20079;-53
2022/05/02 02:10:21;;;;;;;12.05;6.28;;;;;;;9.70;40.24;100029.53;5051930;28;20389;-55
2022/05/02 02:12:46;;;;;;;13.45;5.90;;;;;;;9.73;40.00;100028.44;5034146;28;20044;-53
2022/05/02 02:15:14;;;;;;;14.38;6.30;;;;;;;9.74;40.30;100024.81;5052152;28;20352;-53
2022/05/02 02:17:43;;;;;;;18.45;6.70;;;;;;;9.81;40.03;100034.06;5051573;28;20109;-53
2022/05/02 02:20:10;;;;;;;18.17;6.53;;;;;;;9.79;40.26;100028.00;5052063;28;20079;-54
2022/05/02 02:22:37;;;;;;;22.30;6.30;;;;;;;9.82;40.11;100033.09;5052227;28;20116;-54
2022/05/02 02:25:04;;;;;;;14.02;7.05;;;;;;;9.86;40.20;100023.03;5051869;28;20056;-54
2022/05/02 02:27:31;;;;;;;17.95;6.53;;;;;;;9.85;40.14;100022.19;5052140;28;20033;-51
2022/05/02 02:29:57;;;;;;;14.93;6.60;;;;;;;9.93;40.35;100031.47;5052045;28;20029;-53
2022/05/02 02:32:22;;;;;;;13.38;6.40;;;;;;;9.95;40.21;100024.19;5051595;28;20515;-54
2022/05/02 02:34:48;;;;;;;15.15;6.90;;;;;;;9.96;40.23;100026.72;5051686;28;20098;-58
2022/05/02 02:37:13;;;;;;;15.55;7.13;;;;;;;10.00;40.08;100033.53;5052023;28;20044;-55
2022/05/02 02:39:39;;;;;;;17.27;6.65;;;;;;;10.04;40.29;100032.38;5051514;28;20108;-56
2022/05/02 02:42:05;;;;;;;14.73;6.95;;;;;;;10.07;40.21;100033.09;5051635;28;20051;-59
2022/05/02 02:44:30;;;;;;;19.17;7.13;;;;;;;10.09;40.22;100036.50;5052169;28;20071;-51
2022/05/02 02:46:56;;;;;;;16.27;6.85;;;;;;;10.09;40.09;100039.19;5051552;28;20032;-51
2022/05/02 02:49:21;;;;;;;14.25;6.50;;;;;;;9.96;39.86;100012.50;5051229;28;20037;-51
2022/05/02 02:51:47;;;;;;;18.02;7.00;;;;;;;9.99;40.50;100021.13;5051136;28;20037;-51
2022/05/02 02:54:13;;;;;;;15.05;6.25;;;;;;;10.10;40.52;100038.22;5051535;28;20369;-55
2022/05/02 02:56:38;;;;;;;12.88;6.85;;;;;;;10.11;40.42;100029.22;5033477;28;20116;-53
2022/05/02 02:59:04;;;;;;;11.98;6.40;;;;;;;10.11;40.32;100030.06;5051452;28;20029;-52
2022/05/02 03:01:30;;;;;;;12.77;6.60;;;;;;;10.16;40.29;100040.44;5051297;28;20426;-53
2022/05/02 03:03:56;;;;;;;20.65;7.22;;;;;;;10.15;40.09;100042.25;5051339;28;20213;-53
2022/05/02 03:06:21;;;;;;;17.08;6.68;;;;;;;10.15;40.36;100036.91;5051370;28;20377;-54
2022/05/02 03:08:47;;;;;;;15.32;7.50;;;;;;;10.14;40.69;100026.31;5051017;28;20150;-53
2022/05/02 03:11:13;;;;;;;17.67;7.45;;;;;;;10.24;40.82;100040.69;5050872;28;20037;-52
2022/05/02 03:13:38;;;;;;;18.30;7.13;;;;;;;10.29;40.21;100035.00;5033154;28;20059;-53
2022/05/02 03:16:04;;;;;;;17.42;6.63;;;;;;;10.15;40.56;100004.81;5051521;28;20029;-54
2022/05/02 03:18:31;;;;;;;15.60;6.97;;;;;;;10.39;40.37;100044.03;5032915;28;20419;-52
2022/05/02 03:20:56;;;;;;;24.40;7.28;;;;;;;10.42;40.32;100026.91;5050693;28;20025;-54
2022/05/02 03:23:23;;;;;;;14.32;7.25;;;;;;;10.53;40.13;100028.75;5051025;28;20120;-51
2022/05/02 03:25:49;;;;;;;21.83;7.45;;;;;;;10.62;39.75;100038.78;5050783;28;20436;-56
2022/05/02 03:28:15;;;;;;;13.75;7.22;;;;;;;10.69;39.54;100041.81;5050435;28;20029;-58
2022/05/02 03:30:41;;;;;;;19.08;7.50;;;;;;;10.76;39.58;100043.06;5049913;28;20025;-56
2022/05/02 03:33:06;;;;;;;15.55;7.60;;;;;;;10.82;39.60;100045.25;5050880;28;20029;-54
2022/05/02 03:35:32;;;;;;;12.20;7.60;;;;;;;10.88;39.37;100043.91;5032938;28;20029;-54
2022/05/02 03:37:57;;;;;;;19.83;7.65;;;;;;;10.95;39.52;100045.13;5050492;28;20121;-52
2022/05/02 03:40:23;;;;;;;17.65;8.30;;;;;;;11.01;39.14;100036.59;5050184;28;20574;-55
2022/05/02 03:42:48;;;;;;;15.88;7.82;;;;;;;11.17;38.72;100051.47;5050565;28;20377;-51
2022/05/02 03:45:14;;;;;;;13.73;7.63;;;;;;;11.16;38.79;100029.16;5050483;28;20043;-55
2022/05/02 03:47:39;;;;;;;21.65;8.10;;;;;;;11.45;38.45;100047.44;5050288;28;20453;-55
2022/05/02 03:50:05;;;;;;;24.42;7.93;;;;;;;11.55;37.95;100052.88;5050630;28;20032;-56
2022/05/02 03:52:30;;;;;;;13.02;7.38;;;;;;;11.68;37.63;100046.53;5050080;28;20451;-52
2022/05/02 03:54:56;;;;;;;18.85;7.75;;;;;;;11.84;37.33;100054.16;5050264;28;20426;-53
2022/05/02 03:57:22;;;;;;;12.52;7.40;;;;;;;12.03;37.18;100056.19;5050367;28;20043;-53
2022/05/02 03:59:48;;;;;;;15.32;7.45;;;;;;;12.24;36.65;100055.38;5050034;28;20101;-53
2022/05/02 04:02:13;;;;;;;17.25;7.40;;;;;;;12.42;36.55;100056.53;5050140;28;20040;-51
2022/05/02 04:04:39;;;;;;;15.43;7.40;;;;;;;12.57;35.91;100056.22;5050298;28;20032;-60
2022/05/02 04:07:05;;;;;;;14.93;8.10;;;;;;;12.70;35.81;100058.69;5032396;28;20380;-54
2022/05/02 04:09:30;;;;;;;15.60;7.60;;;;;;;12.71;35.72;100055.84;5032197;28;20097;-55
2022/05/02 04:11:59;;;;;;;9.73;7.43;;;;;;;12.67;35.45;100037.47;5049888;28;20037;-51
2022/05/02 04:14:24;;;;;;;12.32;7.28;;;;;;;12.94;35.28;100055.69;5049955;28;20495;-54
2022/05/02 04:16:50;;;;;;;13.77;7.40;;;;;;;13.18;34.79;100055.41;5032423;28;20025;-54
2022/05/02 04:19:16;;;;;;;11.45;6.50;;;;;;;13.43;34.04;100061.34;5050031;28;20045;-53
2022/05/02 04:21:42;;;;;;;10.18;6.68;;;;;;;13.64;33.70;100055.84;5050040;28;20021;-51
2022/05/02 04:24:08;;;;;;;11.55;6.63;;;;;;;13.57;33.00;100013.50;5050193;28;20408;-54
2022/05/02 04:26:34;;;;;;;10.25;5.95;;;;;;;13.92;32.34;100049.81;5049672;28;20033;-55
2022/05/02 04:29:00;;;;;;;11.95;5.80;;;;;;;14.02;32.06;100050.66;5049830;28;20841;-53
2022/05/02 04:31:26;;;;;;;10.50;6.00;;;;;;;14.03;31.74;100048.84;5050009;28;20067;-52
2022/05/02 04:33:51;;;;;;;10.70;5.68;;;;;;;14.07;31.82;100055.63;5049948;28;20124;-55
2022/05/02 04:36:17;;;;;;;10.77;5.93;;;;;;;13.86;31.64;100029.69;5049705;28;20350;-57
2022/05/02 04:38:43;;;;;;;10.25;5.30;;;;;;;13.95;31.73;100048.66;5049788;28;20087;-55
2022/05/02 04:41:11;;;;;;;12.77;5.60;;;;;;;13.92;31.58;100049.81;5052306;28;20124;-53
2022/05/02 04:43:37;;;;;;;9.77;5.43;;;;;;;13.97;31.61;100057.44;5054221;28;20477;-54
2022/05/02 04:46:02;;;;;;;7.85;5.28;;;;;;;14.04;31.28;100062.13;5053668;28;20028;-58
2022/05/02 04:48:28;;;;;;;9.82;5.70;;;;;;;14.22;31.12;100053.38;5053916;28;20033;-54
2022/05/02 04:50:53;;;;;;;8.05;5.65;;;;;;;14.44;30.67;100060.28;5054077;28;20088;-55
2022/05/02 04:53:19;;;;;;;8.00;5.85;;;;;;;14.74;30.30;100050.38;5053251;28;20056;-56
2022/05/02 04:55:44;;;;;;;8.27;5.72;;;;;;;15.06;29.61;100049.13;5053654;28;20434;-56
2022/05/02 04:58:10;;;;;;;8.85;5.40;;;;;;;15.47;29.31;100056.06;5052757;28;20071;-54
2022/05/02 05:00:35;;;;;;;9.13;4.88;;;;;;;15.94;28.18;100041.56;5053615;28;20105;-51
2022/05/02 05:03:03;;;;;;;10.80;5.88;;;;;;;16.48;27.57;100046.94;5053518;28;20029;-52
2022/05/02 05:05:28;;;;;;;8.80;5.63;;;;;;;16.78;26.75;100036.66;5053007;28;20060;-55
2022/05/02 05:07:54;;;;;;;8.23;5.38;;;;;;;17.13;25.89;100046.72;5053402;28;20405;-54
2022/05/02 05:10:19;;;;;;;6.55;5.05;;;;;;;17.27;25.65;100054.19;5053396;28;20036;-50
2022/05/02 05:13:08;;;;;;;9.98;5.20;;;;;;;17.61;26.13;100047.94;5053417;28;20075;-50
2022/05/02 05:18:50;;;;;;;9.82;5.10;;;;;;;17.99;25.32;100052.06;5053209;28;20033;-55
2022/05/02 05:21:32;;;;;;;12.02;5.70;;;;;;;19.25;24.17;100041.81;5052982;28;20033;-51
2022/05/02 05:24:30;;;;;;;11.10;5.80;;;;;;;20.42;22.85;100042.81;5052790;28;20500;-53
2022/05/02 05:27:03;;;;;;;7.32;5.15;;;;;;;22.07;20.23;100039.22;5018366;28;20095;-56
2022/05/02 05:29:43;;;;;;;9.60;4.90;;;;;;;25.60;17.22;100053.59;5053130;28;20029;-55
2022/05/02 05:32:15;;;;;;;5.80;4.40;;;;;;;28.73;12.78;100040.75;5053378;28;20025;-57
2022/05/02 05:35:06;;;;;;;8.40;3.30;;;;;;;31.67;12.38;100049.81;5053084;28;20032;-53
2022/05/02 05:37:45;;;;;;;4.13;2.85;;;;;;;33.79;10.17;100045.00;5052926;28;20325;-63
2022/05/02 05:40:30;;;;;;;5.18;2.67;;;;;;;35.03;10.12;100056.19;5053192;28;20029;-54
2022/05/02 05:43:33;;;;;;;3.60;2.80;;;;;;;36.59;7.34;100058.09;5052915;28;20056;-55
2022/05/02 05:46:20;;;;;;;3.00;2.70;;;;;;;38.32;6.57;100053.69;5052497;28;20109;-55
2022/05/02 05:48:51;;;;;;;5.43;2.80;;;;;;;39.17;6.22;100061.97;5052765;28;20452;-60
2022/05/02 05:51:32;;;;;;;4.35;3.40;;;;;;;40.18;6.08;100049.97;5052457;28;20056;-51
2022/05/02 05:54:12;;;;;;;5.47;2.88;;;;;;;40.49;5.10;100054.00;5052026;28;20032;-52
2022/05/02 05:56:58;;;;;;;3.13;2.80;;;;;;;41.15;5.08;100046.88;5051687;28;20063;-56
2022/05/02 05:59:37;;;;;;;4.80;3.10;;;;;;;41.27;4.07;100041.50;5052609;28;20059;-55
2022/05/02 06:02:14;;;;;;;4.15;2.70;;;;;;;42.01;3.87;100038.94;5052646;28;20029;-56
2022/05/02 06:04:42;;;;;;;3.25;3.05;;;;;;;41.83;3.72;100043.75;5034892;28;20131;-57
2022/05/02 06:07:09;;;;;;;3.50;2.40;;;;;;;41.70;3.17;100027.84;5052400;28;20385;-55
2022/05/02 06:09:38;;;;;;;5.30;3.00;;;;;;;41.84;3.44;100034.16;5052498;28;20043;-52
2022/05/02 06:12:05;;;;;;;6.53;2.67;;;;;;;41.79;3.23;100031.50;5052527;28;20025;-53
2022/05/02 06:18:27;;;;;;;5.53;3.20;;;;;;;42.14;3.30;100031.50;5052079;28;20114;-59
2022/05/02 06:20:11;;;;;;;5.97;2.50;;;;;;;42.64;2.43;100026.44;5052519;28;20086;-58
2022/05/02 06:22:39;;;;;;;3.08;1.80;;;;;;;43.10;2.37;100032.41;5052178;28;20116;-54
2022/05/02 06:25:06;;;;;;;2.13;1.92;;;;;;;43.44;1.68;100024.09;5052154;28;20051;-59
2022/05/02 06:27:35;;;;;;;5.95;2.45;;;;;;;44.25;1.89;100028.75;5052262;28;20368;-56
2022/05/02 06:30:02;;;;;;;2.65;2.17;;;;;;;44.21;1.78;100011.66;5051885;28;20090;-58
2022/05/02 06:32:36;;;;;;;4.30;2.10;;;;;;;44.69;2.03;100022.59;5033826;28;20036;-59
2022/05/02 06:35:02;;;;;;;2.47;2.25;;;;;;;44.23;1.98;100020.59;5052066;28;20388;-58
2022/05/02 06:37:38;;;;;;;3.45;2.08;;;;;;;44.91;2.10;100001.56;5052052;28;20025;-57
2022/05/02 06:40:05;;;;;;;2.22;1.60;;;;;;;44.94;1.38;100017.84;5052099;28;20021;-57
2022/05/02 06:42:48;;;;;;;2.10;1.90;;;;;;;45.91;1.17;100021.22;5051739;28;20040;-60
2022/05/02 06:45:37;;;;;;;2.00;1.80;;;;;;;46.64;0.83;100012.69;5052352;28;20031;-56
2022/05/02 06:48:47;;;;;;;2.30;2.10;;;;;;;46.92;1.42;100015.44;5046612;28;20037;-60
2022/05/02 06:51:29;;;;;;;3.17;2.42;;;;;;;46.55;0.63;100018.56;5030465;28;20499;-58
2022/05/02 06:54:06;;;;;;;5.05;2.67;;;;;;;46.94;0.73;100007.38;5051490;28;20090;-60
2022/05/02 06:57:11;;;;;;;3.47;2.58;;;;;;;46.68;1.11;100003.09;5048194;28;20033;-64
2022/05/02 06:59:39;;;;;;;2.60;2.40;;;;;;;44.79;1.06;100007.19;5025863;28;20041;-60
2022/05/02 07:02:23;;;;;;;4.10;2.30;;;;;;;43.66;1.68;99999.56;5034300;28;20074;-59
2022/05/02 07:04:55;;;;;;;2.97;2.10;;;;;;;44.25;1.55;100000.53;5032370;28;20097;-62
2022/05/02 07:07:48;;;;;;;3.35;2.20;;;;;;;44.26;1.48;99996.53;5051061;28;20083;-60
2022/05/02 07:10:22;;;;;;;4.00;2.40;;;;;;;43.82;1.43;99999.78;5051368;28;20036;-59
2022/05/02 07:12:50;;;;;;;3.03;2.40;;;;;;;43.39;1.57;99991.31;5051072;28;20485;-59
2022/05/02 07:15:27;;;;;;;3.85;2.45;;;;;;;44.21;1.34;99999.59;5051007;28;20037;-60
2022/05/02 07:18:02;;;;;;;2.60;2.40;;;;;;;43.87;1.27;99994.72;5050570;28;20034;-58
2022/05/02 07:20:32;;;;;;;2.50;2.17;;;;;;;43.96;1.40;99985.38;5050666;28;20029;-59
2022/05/02 07:22:58;;;;;;;4.18;2.60;;;;;;;44.70;1.41;99981.91;5033301;28;20029;-59
2022/05/02 07:25:24;;;;;;;4.25;2.50;;;;;;;45.09;1.07;99995.69;5050755;28;20361;-62
2022/05/02 07:27:53;;;;;;;3.40;2.25;;;;;;;46.11;1.26;99997.56;5050592;28;20036;-60
2022/05/02 07:30:22;;;;;;;3.00;2.70;;;;;;;46.97;0.78;99994.50;5050872;28;20528;-65
2022/05/02 07:32:50;;;;;;;2.55;2.35;;;;;;;47.23;0.20;99991.03;5050198;28;20230;-62
2022/05/02 07:35:16;;;;;;;3.08;2.17;;;;;;;47.01;0.52;99995.41;5039831;28;20029;-62
2022/05/02 07:37:43;;;;;;;2.17;1.95;;;;;;;47.15;0.37;99992.09;5027028;28;20146;-59
2022/05/02 07:40:11;;;;;;;2.13;2.00;;;;;;;47.90;0.41;99994.94;5030334;28;20351;-59
2022/05/02 07:42:37;;;;;;;2.47;2.25;;;;;;;47.45;0.43;99985.88;5031812;28;20128;-63
2022/05/02 07:45:07;;;;;;;1.98;1.88;;;;;;;47.00;0.00;99986.06;5044332;28;20104;-60
2022/05/02 07:47:35;;;;;;;3.65;1.77;;;;;;;46.38;0.36;99992.22;5042897;28;20051;-60
2022/05/02 07:50:02;;;;;;;1.88;1.67;;;;;;;45.78;0.59;99989.31;5049923;28;20040;-63
2022/05/02 07:52:28;;;;;;;1.95;1.65;;;;;;;44.81;0.59;99973.78;5031834;28;20174;-64
2022/05/02 07:54:57;;;;;;;2.65;1.83;;;;;;;44.81;0.32;99983.09;5029951;28;20041;-63
2022/05/02 07:57:24;;;;;;;1.70;1.60;;;;;;;43.80;0.56;99986.00;5030177;28;20033;-59
2022/05/02 07:59:59;;;;;;;4.07;1.63;;;;;;;43.75;0.93;99977.78;5030692;28;20099;-59
2022/05/02 08:02:25;;;;;;;2.85;1.60;;;;;;;42.29;1.29;99970.25;5030032;28;20033;-60
2022/05/02 08:04:52;;;;;;;1.42;1.33;;;;;;;41.96;1.43;99970.78;5050197;28;20021;-67
2022/05/02 08:07:31;;;;;;;1.80;1.55;;;;;;;42.04;1.87;99975.63;5049910;28;20064;-61
2022/05/02 08:10:35;;;;;;;2.03;1.45;;;;;;;40.84;2.22;99969.16;5050094;28;20029;-61
2022/05/02 08:13:22;;;;;;;2.33;1.20;;;;;;;36.61;3.33;99975.81;5050076;28;20385;-60
2022/05/02 08:16:00;;;;;;;1.90;1.10;;;;;;;32.67;4.68;99959.06;5049972;28;20041;-59
2022/05/02 08:18:57;;;;;;;1.35;1.23;;;;;;;30.53;5.95;99972.78;5049402;28;20043;-60
2022/05/02 08:21:46;;;;;;;1.25;1.15;;;;;;;28.03;7.16;99966.06;5049814;28;20033;-60
2022/05/02 08:27:50;;;;;;;2.20;1.13;;;;;;;24.68;9.00;99966.78;5007835;28;20042;-60
2022/05/02 08:30:22;;;;;;;1.85;1.05;;;;;;;23.04;10.68;99954.94;5045297;28;20499;-61
2022/05/02 08:33:06;;;;;;;3.45;1.30;;;;;;;22.61;10.41;99941.47;5049857;28;20507;-61
2022/05/02 08:35:58;;;;;;;2.05;1.30;;;;;;;22.34;10.94;99949.47;5048639;28;20040;-62
2022/05/02 08:38:23;;;;;;;2.50;1.25;;;;;;;21.71;12.14;99945.56;5049721;28;20043;-63
2022/05/02 08:41:00;;;;;;;1.60;1.33;;;;;;;21.80;11.58;99947.09;5034588;28;20025;-60
2022/05/02 08:43:57;;;;;;;1.67;1.23;;;;;;;21.87;11.46;99943.63;5029918;28;20025;-60
2022/05/02 08:47:00;;;;;;;1.52;1.10;;;;;;;21.91;11.31;99947.63;5012114;28;20030;-64
2022/05/02 08:49:50;;;;;;;3.88;1.27;;;;;;;21.68;12.72;99945.09;5041983;28;20120;-58
2022/05/02 08:52:39;;;;;;;2.10;1.20;;;;;;;21.60;12.50;99946.06;5049854;28;20461;-59
2022/05/02 08:55:22;;;;;;;1.27;1.08;;;;;;;21.33;12.21;99940.28;5049495;28;20131;-62
2022/05/02 08:58:37;;;;;;;1.67;1.08;;;;;;;21.26;12.00;99940.25;5032326;28;20029;-61
2022/05/02 09:01:46;;;;;;;2.28;0.88;;;;;;;20.88;11.94;99933.06;4930934;29;20110;-59
2022/05/02 09:04:47;;;;;;;1.65;1.30;;;;;;;20.47;12.98;99937.03;5049229;28;20029;-59
2022/05/02 09:07:38;;;;;;;2.38;1.08;;;;;;;20.13;12.39;99918.53;4996362;28;20080;-60
2022/05/02 09:10:20;;;;;;;2.10;1.10;;;;;;;19.65;13.02;99919.56;5012394;28;20025;-60
2022/05/02 09:13:23;;;;;;;1.30;1.20;;;;;;;19.29;13.09;99915.59;5029657;28;20146;-59
2022/05/02 09:16:00;;;;;;;3.38;1.13;;;;;;;18.76;13.53;99920.72;5029418;28;20073;-60
2022/05/02 09:18:47;;;;;;;3.45;1.10;;;;;;;18.53;14.04;99917.91;5031714;28;20137;-58
2022/05/02 09:21:40;;;;;;;4.15;1.20;;;;;;;18.59;13.96;99909.94;5049812;28;20235;-61
2022/05/02 09:24:43;;;;;;;2.55;1.17;;;;;;;18.67;14.08;99910.91;5049311;28;20472;-51
2022/05/02 09:27:27;;;;;;;0.82;0.82;;;;;;;18.54;14.31;99908.75;5049754;28;20455;-59
2022/05/02 09:30:14;;;;;;;2.38;0.95;;;;;;;18.51;13.82;99913.50;5053911;28;20068;-58
2022/05/02 09:32:47;;;;;;;2.40;1.15;;;;;;;18.34;14.61;99910.00;5053172;28;20029;-62
2022/05/02 09:35:43;;;;;;;3.08;1.25;;;;;;;18.44;13.60;99906.22;5036994;28;20498;-59
2022/05/02 09:38:39;;;;;;;1.80;1.10;;;;;;;18.41;13.58;99891.19;5031860;28;20041;-59
2022/05/02 09:41:32;;;;;;;1.80;1.20;;;;;;;18.62;13.78;99887.88;5051155;28;20429;-60
2022/05/02 09:50:14;;;;;;;2.88;1.40;;;;;;;18.77;13.85;99881.72;5044912;28;20406;-55
2022/05/02 09:53:21;;;;;;;2.85;1.20;;;;;;;18.52;14.05;99876.41;5052718;28;20064;-58
2022/05/02 09:59:08;;;;;;;2.38;1.40;;;;;;;18.13;14.28;99867.19;5016365;28;19972;-55
2022/05/02 10:01:34;;;;;;;3.20;1.10;;;;;;;18.09;15.21;99868.56;5032377;28;20048;-54
2022/05/02 10:04:14;;;;;;;1.58;1.15;;;;;;;18.58;14.46;99870.28;5035573;28;20151;-61
2022/05/02 10:06:47;;;;;;;1.55;1.13;;;;;;;18.90;13.94;99862.19;5052282;28;20369;-58
2022/05/02 10:09:30;;;;;;;2.50;0.90;;;;;;;19.06;13.98;99858.56;5052346;28;20047;-56
2022/05/02 10:12:16;;;;;;;1.52;1.10;;;;;;;18.66;13.73;99863.97;5052461;28;20025;-64
2022/05/02 10:15:12;;;;;;;1.55;0.90;;;;;;;18.54;13.74;99851.81;5052494;28;20164;-59
2022/05/02 10:18:01;;;;;;;1.65;1.13;;;;;;;18.56;13.82;99836.22;5052227;28;20108;-63
2022/05/02 10:20:45;;;;;;;1.33;1.00;;;;;;;18.83;13.90;99821.34;5052082;28;20033;-69
2022/05/02 10:23:51;;;;;;;1.25;0.90;;;;;;;19.47;13.16;99844.72;5051027;28;20032;-52
2022/05/02 10:26:29;;;;;;;1.15;1.00;;;;;;;19.48;13.16;99838.25;4991422;28;20046;-60
2022/05/02 10:29:35;;;;;;;2.08;1.20;;;;;;;19.75;12.93;99843.28;5047278;28;20096;-60
2022/05/02 10:32:31;;;;;;;1.88;1.20;;;;;;;19.55;12.80;99829.38;5052274;28;20053;-56
2022/05/02 10:34:59;;;;;;;1.45;1.30;;;;;;;19.40;12.99;99823.91;5043757;28;20128;-60
2022/05/02 10:37:31;;;;;;;2.90;1.48;;;;;;;19.31;13.33;99832.09;5034991;28;20040;-56
2022/05/02 10:40:08;;;;;;;1.77;1.17;;;;;;;19.32;13.37;99828.38;5051977;28;20060;-61
2022/05/02 10:42:34;;;;;;;1.15;1.00;;;;;;;19.16;13.62;99817.63;5052098;28;20039;-61
2022/05/02 10:45:04;;;;;;;3.53;1.27;;;;;;;19.08;14.08;99807.66;5034196;28;20489;-59
2022/05/02 10:47:58;;;;;;;2.20;1.50;;;;;;;19.23;13.85;99815.88;5052239;28;20031;-56
2022/05/02 10:50:26;;;;;;;2.83;1.60;;;;;;;19.04;14.13;99812.59;5051839;28;20063;-57
2022/05/02 10:53:10;;;;;;;2.38;1.50;;;;;;;19.00;13.99;99811.25;5051759;28;20048;-61
2022/05/02 10:56:00;;;;;;;5.25;1.52;;;;;;;18.72;14.26;99805.50;5051948;28;20032;-57
2022/05/02 10:58:31;;;;;;;2.72;1.80;;;;;;;18.37;14.70;99800.41;5052016;28;20491;-57
2022/05/02 11:01:17;;;;;;;2.50;1.83;;;;;;;18.22;14.76;99801.13;5052016;28;20025;-58
2022/05/02 11:04:34;;;;;;;2.78;1.67;;;;;;;18.14;15.03;99800.28;5052230;28;20087;-54
2022/05/02 11:07:35;;;;;;;2.55;1.40;;;;;;;18.16;15.03;99782.84;4998521;28;20034;-65
2022/05/02 11:10:09;;;;;;;2.30;1.38;;;;;;;18.19;14.92;99790.63;5014023;28;20385;-61
2022/05/02 11:12:51;;;;;;;2.92;1.40;;;;;;;18.35;14.55;99780.75;5031386;28;20061;-60
2022/05/02 11:15:25;;;;;;;3.08;1.90;;;;;;;18.37;14.58;99778.72;5031714;28;20445;-58
2022/05/02 11:18:09;;;;;;;3.85;1.70;;;;;;;18.38;14.57;99774.97;5031665;28;20041;-54
2022/05/02 11:20:49;;;;;;;2.33;1.60;;;;;;;18.30;14.45;99777.69;5040172;28;20025;-58
2022/05/02 11:23:39;;;;;;;4.55;1.80;;;;;;;18.31;14.37;99769.41;5051401;28;20088;-60
2022/05/02 11:26:21;;;;;;;5.15;1.45;;;;;;;18.44;14.52;99767.97;5051747;28;20049;-57
2022/05/02 11:29:13;;;;;;;4.70;1.70;;;;;;;18.65;14.51;99764.66;5032763;28;20107;-52
2022/05/02 11:31:55;;;;;;;3.03;1.65;;;;;;;18.91;14.11;99758.06;5038244;28;20069;-58
2022/05/02 11:34:52;;;;;;;3.05;1.88;;;;;;;18.94;14.28;99755.00;5036128;28;20083;-60
2022/05/02 11:37:31;;;;;;;;;;;;;;;19.30;13.68;99745.41;5036500;28;20036;-61
2022/05/02 11:40:05;;;;;;;2.70;1.70;;;;;;;18.90;14.00;99732.78;5045198;28;19954;-58
2022/05/02 11:42:32;;;;;;;2.85;1.80;;;;;;;18.73;13.94;99748.34;5023625;28;20123;-65
2022/05/02 11:44:58;;;;;;;4.55;1.80;;;;;;;18.55;14.22;99731.50;5036606;28;20116;-60
2022/05/02 11:47:43;;;;;;;2.30;1.80;;;;;;;18.83;14.03;99739.16;5042631;28;20113;-58
2022/05/02 11:50:10;;;;;;;4.22;2.00;;;;;;;18.70;14.31;99740.56;4989693;28;20041;-59
2022/05/02 11:52:38;;;;;;;2.28;1.75;;;;;;;18.76;13.93;99742.56;5044628;28;20029;-60
2022/05/02 11:55:06;;;;;;;3.78;2.20;;;;;;;18.75;14.00;99732.72;5026194;28;20117;-59
2022/05/02 11:57:38;;;;;;;3.45;2.25;;;;;;;19.01;13.92;99736.16;5031317;28;20057;-61
2022/05/02 12:00:11;;;;;;;2.97;1.88;;;;;;;19.05;13.85;99737.47;5031396;28;20095;-59
2022/05/02 12:02:37;;;;;;;5.05;2.08;;;;;;;19.12;13.82;99729.47;5041388;28;20036;-57
2022/05/02 12:05:05;;;;;;;4.13;1.98;;;;;;;19.24;13.76;99719.84;5015990;28;20532;-64
2022/05/02 12:07:33;;;;;;;3.03;1.92;;;;;;;19.41;13.56;99719.69;5013173;28;20041;-56
2022/05/02 12:10:18;;;;;;;3.75;2.05;;;;;;;19.62;13.75;99716.25;5039625;28;20028;-58
2022/05/02 12:12:51;;;;;;;3.03;2.13;;;;;;;19.49;13.90;99712.31;5043264;28;20032;-56
2022/05/02 12:15:18;;;;;;;4.18;2.38;;;;;;;19.25;14.26;99705.25;5049321;28;20067;-59
2022/05/02 12:17:49;;;;;;;4.55;2.25;;;;;;;19.19;14.23;99703.28;5050028;28;20033;-55
2022/05/02 12:20:42;;;;;;;4.13;2.33;;;;;;;19.34;14.30;99700.59;5031712;28;20032;-55
2022/05/02 12:23:17;;;;;;;3.65;2.42;;;;;;;19.38;14.15;99714.66;5044573;28;20057;-54